Sunset, Texas
Current Conditions -  °F | °C
As of 10:15 PM on Wednesday 17 Dec 2014 (Local Time) from K0F2 Reporting Station
Overcast Overcast  
Wind Chill: 33°   Ceiling: 300
Heat Index: 38°   Visibility: 7mi
Dew Point: 38°   Wind: 7mph
Humidity: 99%   Direction: 130°SE
Pressure: 30.14"   Gusts: NA
Location:  33.45°N, 97.77°W
Report Text: K0F2 180415Z AUTO 13006KT 7SM OVC003 04/03 A3014 RMK AO2 T00350034
Loading
Personal Weather Stations






























Interactive Weather Map New forecast layout! Learn more

10-Day Weather Forecast

Advertisements
Track Severe Weather on mobile